createdAt,value
2017-03-16T00:00:27.908Z,60.5
2017-03-16T00:01:29.771Z,60.5
2017-03-16T00:02:31.619Z,60.5
2017-03-16T00:03:33.760Z,60.6
2017-03-16T00:04:35.893Z,60.6
2017-03-16T00:05:38.019Z,60.6
2017-03-16T00:06:39.867Z,60.5
2017-03-16T00:07:42.310Z,60.5
2017-03-16T00:08:44.429Z,60.5
2017-03-16T00:09:46.506Z,60.6
2017-03-16T00:10:48.702Z,60.6
2017-03-16T00:11:51.117Z,60.5
2017-03-16T00:12:52.986Z,60.6
2017-03-16T00:13:54.832Z,60.6
2017-03-16T00:14:56.683Z,60.6
2017-03-16T00:15:58.560Z,60.7
2017-03-16T00:17:00.406Z,60.8
2017-03-16T00:18:02.257Z,60.7
2017-03-16T00:19:04.108Z,60.7
2017-03-16T00:20:05.962Z,60.8
2017-03-16T00:21:08.151Z,60.6
2017-03-16T00:22:10.003Z,60.8
2017-03-16T00:23:11.843Z,60.7
2017-03-16T00:24:13.707Z,60.8
2017-03-16T00:25:15.557Z,60.8
2017-03-16T00:26:17.576Z,60.9
2017-03-16T00:27:19.945Z,60.9
2017-03-16T00:28:22.083Z,60.9
2017-03-16T00:29:24.192Z,61
2017-03-16T00:30:26.036Z,61
2017-03-16T00:31:28.501Z,61
2017-03-16T00:32:30.874Z,61
2017-03-16T00:33:33.219Z,60.9
2017-03-16T00:34:35.202Z,61
2017-03-16T00:35:37.310Z,60.9
2017-03-16T00:36:39.422Z,60.9
2017-03-16T00:37:41.813Z,60.9
2017-03-16T00:38:43.654Z,60.9
2017-03-16T00:39:45.500Z,61
2017-03-16T00:40:47.350Z,61
2017-03-16T00:41:49.194Z,61
2017-03-16T00:42:51.052Z,61
2017-03-16T00:43:52.901Z,61
2017-03-16T00:44:54.744Z,61.1
2017-03-16T00:45:56.589Z,61.2
2017-03-16T00:46:58.445Z,61.2
2017-03-16T00:48:00.634Z,61.3
2017-03-16T00:49:02.489Z,61.3
2017-03-16T00:50:04.332Z,61.3
2017-03-16T00:51:06.370Z,61.3
2017-03-16T00:52:08.466Z,61.3
2017-03-16T00:53:10.325Z,61.3
2017-03-16T00:54:12.444Z,61.3
2017-03-16T00:55:14.577Z,61.4
2017-03-16T00:56:16.433Z,61.4
2017-03-16T00:57:18.278Z,61.4
2017-03-16T00:58:20.127Z,61.5
2017-03-16T00:59:21.973Z,61.5
2017-03-16T01:00:24.173Z,61.5
2017-03-16T01:01:26.033Z,61.6
2017-03-16T01:02:27.891Z,61.5
2017-03-16T01:03:29.935Z,61.6
2017-03-16T01:04:32.122Z,61.6
2017-03-16T01:05:34.196Z,61.6
2017-03-16T01:06:36.325Z,61.6
2017-03-16T01:07:38.170Z,61.6
2017-03-16T01:08:40.019Z,61.7
2017-03-16T01:09:41.871Z,61.7
2017-03-16T01:10:44.064Z,61.7
2017-03-16T01:11:46.260Z,61.6
2017-03-16T01:12:48.109Z,61.6
2017-03-16T01:13:49.970Z,61.6
2017-03-16T01:14:51.829Z,61.6
2017-03-16T01:15:53.680Z,61.7
2017-03-16T01:16:55.519Z,61.7
2017-03-16T01:17:57.373Z,61.7
2017-03-16T01:18:59.241Z,61.7
2017-03-16T01:20:01.093Z,61.7
2017-03-16T01:21:03.635Z,61.7
2017-03-16T01:22:05.626Z,61.7
2017-03-16T01:23:07.735Z,61.9
2017-03-16T01:24:09.873Z,61.8
2017-03-16T01:25:11.716Z,61.9
2017-03-16T01:26:13.848Z,61.9
2017-03-16T01:27:16.190Z,61.9
2017-03-16T01:28:18.213Z,61.9
2017-03-16T01:29:20.055Z,61.9
2017-03-16T01:30:22.241Z,61.9
2017-03-16T01:31:24.436Z,61.9
2017-03-16T01:32:26.279Z,62
2017-03-16T01:33:28.141Z,62
2017-03-16T01:34:29.980Z,61.9
2017-03-16T01:35:31.831Z,61.9
2017-03-16T01:36:33.686Z,61.9
2017-03-16T01:37:35.881Z,62
2017-03-16T01:38:38.062Z,62
2017-03-16T01:39:39.909Z,62.1
2017-03-16T01:40:41.753Z,62
2017-03-16T01:41:43.946Z,62
2017-03-16T01:42:45.785Z,62
2017-03-16T01:43:47.635Z,62
2017-03-16T01:44:49.828Z,62
2017-03-16T01:45:51.839Z,62
2017-03-16T01:46:53.950Z,61.9
2017-03-16T01:47:55.799Z,61.9
2017-03-16T01:48:57.914Z,61.9
2017-03-16T01:49:59.768Z,61.9
2017-03-16T01:51:01.941Z,61.9
2017-03-16T01:52:03.793Z,61.9
2017-03-16T01:53:05.640Z,62
2017-03-16T01:54:07.487Z,61.9
2017-03-16T01:55:09.346Z,62
2017-03-16T01:56:11.196Z,62
2017-03-16T01:57:13.051Z,62
2017-03-16T01:58:14.917Z,61.9
2017-03-16T01:59:17.103Z,61.9
2017-03-16T02:00:18.950Z,61.9
2017-03-16T02:01:20.799Z,61.9
2017-03-16T02:02:22.646Z,61.9
2017-03-16T02:03:24.499Z,61.8
2017-03-16T02:04:26.348Z,61.9
2017-03-16T02:05:28.186Z,62
2017-03-16T02:06:30.241Z,61.9
2017-03-16T02:07:32.367Z,62.2
2017-03-16T02:08:34.236Z,62.3
2017-03-16T02:09:36.325Z,62.3
2017-03-16T02:10:38.433Z,62.2
2017-03-16T02:11:40.293Z,62.3
2017-03-16T02:12:42.141Z,62.3
2017-03-16T02:13:43.987Z,62.4
2017-03-16T02:14:45.827Z,62.4
2017-03-16T02:15:47.674Z,62.4
2017-03-16T02:16:49.889Z,62.4
2017-03-16T02:17:51.743Z,62.4
2017-03-16T02:18:53.581Z,62.5
2017-03-16T02:19:55.442Z,62.4
2017-03-16T02:20:57.632Z,62.5
2017-03-16T02:21:59.496Z,62.5
2017-03-16T02:23:01.330Z,62.5
2017-03-16T02:24:03.519Z,62.5
2017-03-16T02:25:05.362Z,62.5
2017-03-16T02:26:07.206Z,62.6
2017-03-16T02:27:09.050Z,62.6
2017-03-16T02:28:10.889Z,62.6
2017-03-16T02:29:12.737Z,62.7
2017-03-16T02:30:14.582Z,62.7
2017-03-16T02:31:16.441Z,62.7
2017-03-16T02:32:18.282Z,62.6
2017-03-16T02:33:20.123Z,62.6
2017-03-16T02:34:21.976Z,62.7
2017-03-16T02:35:23.825Z,62.7
2017-03-16T02:36:25.679Z,62.7
2017-03-16T02:37:27.520Z,62.8
2017-03-16T02:38:29.710Z,62.7
2017-03-16T02:39:31.899Z,62.7
2017-03-16T02:40:33.752Z,62.8
2017-03-16T02:41:35.592Z,62.8
2017-03-16T02:42:37.771Z,62.9
2017-03-16T02:43:39.627Z,62.9
2017-03-16T02:44:41.476Z,62.8
2017-03-16T02:45:43.318Z,62.9
2017-03-16T02:46:45.166Z,62.9
2017-03-16T02:47:47.004Z,62.9
2017-03-16T02:48:48.851Z,62.8
2017-03-16T02:49:51.040Z,62.9
2017-03-16T02:50:52.903Z,62.9
2017-03-16T02:51:54.747Z,62.9
2017-03-16T02:52:56.613Z,62.9
2017-03-16T02:53:58.816Z,62.9
2017-03-16T02:55:01.021Z,62.9
2017-03-16T02:56:02.859Z,62.9
2017-03-16T02:57:04.716Z,62.9
2017-03-16T02:58:06.558Z,62.9
2017-03-16T02:59:08.408Z,62.9
2017-03-16T03:00:10.247Z,62.9
2017-03-16T03:01:12.096Z,62.9
2017-03-16T03:02:13.948Z,62.9
2017-03-16T03:03:15.801Z,63
2017-03-16T03:04:18.321Z,63
2017-03-16T03:05:20.175Z,63
2017-03-16T03:06:22.019Z,63
2017-03-16T03:07:23.878Z,63
2017-03-16T03:08:25.722Z,63
2017-03-16T03:09:27.581Z,63
2017-03-16T03:10:29.424Z,63
2017-03-16T03:11:31.270Z,63
2017-03-16T03:12:33.115Z,63
2017-03-16T03:13:34.964Z,63
2017-03-16T03:14:36.812Z,63
2017-03-16T03:15:38.656Z,63
2017-03-16T03:16:40.493Z,63
2017-03-16T03:17:42.346Z,63
2017-03-16T03:18:44.190Z,63
2017-03-16T03:19:46.041Z,63
2017-03-16T03:20:47.877Z,63
2017-03-16T03:21:49.723Z,63
2017-03-16T03:22:51.573Z,63
2017-03-16T03:23:53.417Z,63
2017-03-16T03:24:55.259Z,63.1
2017-03-16T03:25:57.456Z,63.1
2017-03-16T03:26:59.636Z,63.1
2017-03-16T03:28:01.480Z,63.2
2017-03-16T03:29:03.313Z,63.2
2017-03-16T03:30:05.177Z,63.1
2017-03-16T03:31:07.021Z,63.2
2017-03-16T03:32:08.868Z,63.3
2017-03-16T03:33:10.718Z,63.2
2017-03-16T03:34:12.890Z,63.4
2017-03-16T03:35:14.739Z,63.3
2017-03-16T03:36:16.595Z,63.3
2017-03-16T03:37:18.445Z,63.3
2017-03-16T03:38:20.294Z,63.3
2017-03-16T03:39:22.140Z,63.3
2017-03-16T03:40:23.992Z,63.3
2017-03-16T03:41:25.843Z,63.2
2017-03-16T03:42:27.678Z,63.2
2017-03-16T03:43:29.520Z,63.3
2017-03-16T03:44:31.360Z,63.2
2017-03-16T03:45:33.211Z,63.3
2017-03-16T03:46:35.050Z,63.3
2017-03-16T03:47:36.893Z,63.3
2017-03-16T03:48:38.738Z,63.3
2017-03-16T03:49:40.585Z,63.4
2017-03-16T03:50:42.423Z,63.4
2017-03-16T03:51:44.260Z,63.3
2017-03-16T03:52:46.094Z,63.4
2017-03-16T03:53:47.948Z,63.4
2017-03-16T03:54:49.784Z,63.4
2017-03-16T03:55:51.630Z,63.4
2017-03-16T03:56:53.808Z,63.4
2017-03-16T03:57:55.649Z,63.4
2017-03-16T03:58:57.504Z,63.5
2017-03-16T03:59:59.344Z,63.5
2017-03-16T04:01:01.191Z,63.6
2017-03-16T04:02:03.035Z,63.5
2017-03-16T04:03:04.875Z,63.5
2017-03-16T04:04:07.062Z,63.5
2017-03-16T04:05:08.907Z,63.5
2017-03-16T04:06:10.757Z,63.5
2017-03-16T04:07:12.887Z,63.5
2017-03-16T04:08:14.735Z,63.5
2017-03-16T04:09:16.587Z,63.5
2017-03-16T04:10:18.432Z,63.6
2017-03-16T04:11:20.281Z,63.6
2017-03-16T04:12:22.128Z,63.6
2017-03-16T04:13:23.973Z,63.6
2017-03-16T04:14:25.819Z,63.6
2017-03-16T04:15:27.654Z,63.7
2017-03-16T04:16:29.502Z,63.7
2017-03-16T04:17:31.353Z,63.7
2017-03-16T04:18:33.204Z,63.6
2017-03-16T04:19:35.043Z,63.6
2017-03-16T04:20:36.887Z,63.6
2017-03-16T04:21:38.730Z,63.6
2017-03-16T04:22:40.907Z,63.7
2017-03-16T04:23:42.756Z,63.7
2017-03-16T04:24:44.602Z,63.7
2017-03-16T04:25:46.452Z,63.7
2017-03-16T04:26:48.334Z,63.7
2017-03-16T04:27:50.183Z,63.8
2017-03-16T04:28:52.024Z,63.9
2017-03-16T04:29:54.206Z,63.9
2017-03-16T04:30:56.057Z,64.1
2017-03-16T04:31:57.895Z,64.1
2017-03-16T04:33:00.093Z,64.1
2017-03-16T04:34:02.276Z,64.1
2017-03-16T04:35:04.124Z,64.1
2017-03-16T04:36:05.966Z,64.1
2017-03-16T04:37:07.813Z,64.1
2017-03-16T04:38:09.648Z,64.1
2017-03-16T04:39:11.493Z,64.1
2017-03-16T04:40:13.344Z,64.1
2017-03-16T04:41:15.530Z,64.1
2017-03-16T04:42:17.379Z,64.1
2017-03-16T04:43:19.224Z,64.1
2017-03-16T04:44:21.080Z,64.1
2017-03-16T04:45:22.923Z,64.1
2017-03-16T04:46:24.770Z,64.1
2017-03-16T04:47:26.615Z,64.1
2017-03-16T04:48:28.461Z,64.1
2017-03-16T04:49:30.300Z,64.1
2017-03-16T04:50:32.136Z,64.2
2017-03-16T04:51:33.988Z,64.1
2017-03-16T04:52:35.827Z,64.1
2017-03-16T04:53:37.670Z,64
2017-03-16T04:54:39.513Z,64
2017-03-16T04:55:41.365Z,64
2017-03-16T04:56:43.201Z,64
2017-03-16T04:57:45.408Z,64.1
2017-03-16T04:58:47.246Z,64.1
2017-03-16T04:59:49.098Z,64.1
2017-03-16T05:00:50.935Z,64.1
2017-03-16T05:01:52.776Z,64
2017-03-16T05:02:54.611Z,64
2017-03-16T05:03:56.463Z,64
2017-03-16T05:04:58.648Z,64
2017-03-16T05:06:00.494Z,64.1
2017-03-16T05:07:02.343Z,64.1
2017-03-16T05:08:04.194Z,64.1
2017-03-16T05:09:06.389Z,64.1
2017-03-16T05:10:08.922Z,64
2017-03-16T05:11:10.770Z,64.1
2017-03-16T05:12:12.614Z,64.1
2017-03-16T05:13:14.471Z,64.1
2017-03-16T05:14:16.665Z,64.1
2017-03-16T05:15:18.506Z,64
2017-03-16T05:16:20.355Z,64.1
2017-03-16T05:17:22.206Z,64
2017-03-16T05:18:24.388Z,64.1
2017-03-16T05:19:26.245Z,64.1
2017-03-16T05:20:28.094Z,64.1
2017-03-16T05:21:29.955Z,64.1
2017-03-16T05:22:32.148Z,64.1
2017-03-16T05:23:34.000Z,64
2017-03-16T05:24:35.848Z,64
2017-03-16T05:25:37.704Z,64.1
2017-03-16T05:26:39.546Z,64
2017-03-16T05:27:41.403Z,64
2017-03-16T05:28:43.585Z,64
2017-03-16T05:29:46.110Z,64
2017-03-16T05:30:47.954Z,64.1
2017-03-16T05:31:49.790Z,64.1
2017-03-16T05:32:51.989Z,64.1
2017-03-16T05:33:53.832Z,64
2017-03-16T05:34:56.019Z,64
2017-03-16T05:35:57.861Z,64.1
2017-03-16T05:36:59.718Z,64
2017-03-16T05:38:01.897Z,64
2017-03-16T05:39:03.739Z,64
2017-03-16T05:40:05.586Z,64
2017-03-16T05:41:07.430Z,64.1
2017-03-16T05:42:09.275Z,64.1
2017-03-16T05:43:11.128Z,64.3
2017-03-16T05:44:12.974Z,64.2
2017-03-16T05:45:14.822Z,64.1
2017-03-16T05:46:16.671Z,64.1
2017-03-16T05:47:18.515Z,64.1
2017-03-16T05:51:44.061Z,64.1
2017-03-16T05:52:46.232Z,64.1
2017-03-16T05:53:48.772Z,64.2
2017-03-16T05:54:50.618Z,64.2
2017-03-16T05:55:53.154Z,64.3
2017-03-16T05:56:55.010Z,64.2
2017-03-16T05:57:56.844Z,64.3
2017-03-16T05:58:58.755Z,64.2
2017-03-16T06:00:00.693Z,64.3
2017-03-16T06:01:02.908Z,64.3
2017-03-16T06:02:05.268Z,64.4
2017-03-16T06:03:07.462Z,64.3
2017-03-16T06:04:09.310Z,64.3
2017-03-16T06:05:11.168Z,64.3
2017-03-16T06:06:13.005Z,64.2
2017-03-16T06:07:14.842Z,64.2
2017-03-16T06:08:17.032Z,64.1
2017-03-16T06:09:19.280Z,64.2
2017-03-16T06:10:21.121Z,64.2
2017-03-16T06:11:23.116Z,64
2017-03-16T06:12:25.275Z,64.1
2017-03-16T06:13:27.114Z,64
2017-03-16T06:14:29.639Z,64.1
2017-03-16T06:15:32.004Z,64.1
2017-03-16T06:16:33.950Z,64.1
2017-03-16T06:17:35.785Z,64.1
2017-03-16T06:18:38.437Z,64.1
2017-03-16T06:19:40.404Z,64.2
2017-03-16T06:20:42.244Z,64.2
2017-03-16T06:21:44.130Z,64.2
2017-03-16T06:22:45.968Z,64.2
2017-03-16T06:23:47.823Z,64.3
2017-03-16T06:24:50.344Z,64.2
2017-03-16T06:25:52.173Z,64.3
2017-03-16T06:26:54.350Z,64.2
2017-03-16T06:27:56.197Z,64.2
2017-03-16T06:28:58.378Z,64.2
2017-03-16T06:30:00.598Z,64.3
2017-03-16T06:31:03.034Z,64.2
2017-03-16T06:32:04.867Z,64.3
2017-03-16T06:33:06.718Z,64.3
2017-03-16T06:34:08.569Z,64.3
2017-03-16T06:35:10.855Z,64.3
2017-03-16T06:36:12.692Z,64.3
2017-03-16T06:37:14.654Z,64.3
2017-03-16T06:38:16.833Z,64.3
2017-03-16T06:39:19.353Z,64.4
2017-03-16T06:40:21.555Z,64.4
2017-03-16T06:41:24.218Z,64.3
2017-03-16T06:42:26.065Z,64.3
2017-03-16T06:43:27.899Z,64.3
2017-03-16T06:44:30.150Z,64.3
2017-03-16T06:45:31.988Z,64.3
2017-03-16T06:46:33.847Z,64.3
2017-03-16T06:47:35.804Z,64.3
2017-03-16T06:48:37.658Z,64.3
2017-03-16T06:49:39.501Z,64.2
2017-03-16T06:50:41.353Z,64.2
2017-03-16T06:51:43.941Z,64.2
2017-03-16T06:52:45.795Z,64.3
2017-03-16T06:53:48.184Z,64.2
2017-03-16T06:54:50.034Z,64.3
2017-03-16T06:55:52.220Z,64.3
2017-03-16T06:56:54.242Z,64.2
2017-03-16T06:57:56.775Z,64.2
2017-03-16T06:58:59.623Z,64.3
2017-03-16T07:00:01.793Z,64.3
2017-03-16T07:01:03.641Z,64.2
2017-03-16T07:02:05.561Z,64.4
2017-03-16T07:03:07.409Z,64.4
2017-03-16T07:04:10.028Z,64.4
2017-03-16T07:05:11.908Z,64.4
2017-03-16T07:06:14.537Z,64.4
2017-03-16T07:07:16.375Z,64.3
2017-03-16T07:08:18.303Z,64.3
2017-03-16T07:09:20.163Z,64.3
2017-03-16T07:10:22.269Z,64.2
2017-03-16T07:11:24.169Z,64.2
2017-03-16T07:12:25.998Z,64.3
2017-03-16T07:13:28.186Z,64.3
2017-03-16T07:14:30.828Z,64.3
2017-03-16T07:15:32.670Z,64.3
2017-03-16T07:16:34.506Z,64.3
2017-03-16T07:17:36.399Z,64.3
2017-03-16T07:18:38.599Z,64.3
2017-03-16T07:19:40.439Z,64.3
2017-03-16T07:20:42.406Z,64.3
2017-03-16T07:21:44.248Z,64.4
2017-03-16T07:22:46.081Z,64.4
2017-03-16T07:23:48.414Z,64.4
2017-03-16T07:24:50.608Z,64.4
2017-03-16T07:25:52.976Z,64.4
2017-03-16T07:26:54.805Z,64.3
2017-03-16T07:27:56.657Z,64.2
2017-03-16T07:28:58.503Z,64.3
2017-03-16T07:30:00.848Z,64.3
2017-03-16T07:31:03.027Z,64.4
2017-03-16T07:32:05.040Z,64.3
2017-03-16T07:33:06.884Z,64.2
2017-03-16T07:34:08.737Z,64.2
2017-03-16T07:35:10.573Z,64.2
2017-03-16T07:36:12.535Z,64.2
2017-03-16T07:37:14.372Z,64.3
2017-03-16T07:38:16.546Z,64.2
2017-03-16T07:39:18.548Z,64.1
2017-03-16T07:40:20.391Z,64.3
2017-03-16T07:41:22.229Z,64.3
2017-03-16T07:42:24.217Z,64.4
2017-03-16T07:43:26.057Z,64.4
2017-03-16T07:44:27.893Z,64.4
2017-03-16T07:45:29.734Z,64.3
2017-03-16T07:46:31.571Z,64.4
2017-03-16T07:47:33.412Z,64.4
2017-03-16T07:48:35.296Z,64.4
2017-03-16T07:49:37.137Z,64.4
2017-03-16T07:50:38.982Z,64.4
2017-03-16T07:51:40.821Z,64.4
2017-03-16T07:52:43.046Z,64.4
2017-03-16T07:53:45.237Z,64.3
2017-03-16T07:54:47.073Z,64.4
2017-03-16T07:55:48.932Z,64.4
2017-03-16T07:56:50.775Z,64.5
2017-03-16T07:57:52.610Z,64.4
2017-03-16T07:58:54.592Z,64.4
2017-03-16T07:59:56.775Z,64.4
2017-03-16T08:00:59.299Z,64.4
2017-03-16T08:02:01.130Z,64.3
2017-03-16T08:03:02.976Z,64.3
2017-03-16T08:04:04.824Z,64.3
2017-03-16T08:05:06.664Z,64.5
2017-03-16T08:06:08.707Z,64.4
2017-03-16T08:07:10.546Z,64.3
2017-03-16T08:08:12.387Z,64.4
2017-03-16T08:09:14.913Z,64.3
2017-03-16T08:10:16.752Z,64.2
2017-03-16T08:11:18.585Z,64.2
2017-03-16T08:12:20.419Z,64.2
2017-03-16T08:13:22.270Z,64.2
2017-03-16T08:14:24.298Z,64.2
2017-03-16T08:15:26.132Z,64.2
2017-03-16T08:16:27.977Z,64.2
2017-03-16T08:17:29.815Z,64.2
2017-03-16T08:18:31.652Z,64.3
2017-03-16T08:19:33.491Z,64.3
2017-03-16T08:20:35.666Z,64.3
2017-03-16T08:21:37.514Z,64.2
2017-03-16T08:22:39.348Z,64.1
2017-03-16T08:23:41.532Z,63.1
2017-03-16T08:24:43.364Z,63.2
2017-03-16T08:25:45.282Z,63.1
2017-03-16T08:26:47.119Z,63
2017-03-16T08:27:48.987Z,62.9
2017-03-16T08:28:50.836Z,63
2017-03-16T08:29:52.666Z,62.9
2017-03-16T08:30:54.508Z,62.9
2017-03-16T08:31:56.532Z,62.9
2017-03-16T08:32:58.368Z,63
2017-03-16T08:34:00.404Z,63
2017-03-16T08:35:02.233Z,63
2017-03-16T08:36:04.076Z,63
2017-03-16T08:37:05.917Z,63
2017-03-16T08:38:07.775Z,63.1
2017-03-16T08:39:09.613Z,63.1
2017-03-16T08:40:11.940Z,63
2017-03-16T08:41:13.780Z,63
2017-03-16T08:42:15.961Z,63.1
2017-03-16T08:43:17.791Z,63.1
2017-03-16T08:44:19.907Z,63
2017-03-16T08:45:21.751Z,63
2017-03-16T08:46:23.599Z,63
2017-03-16T08:47:25.435Z,63.3
2017-03-16T08:48:27.276Z,63.1
2017-03-16T08:49:29.116Z,63.1
2017-03-16T08:50:30.953Z,63.1
2017-03-16T08:51:32.783Z,63
2017-03-16T08:52:34.623Z,62.9
2017-03-16T08:53:36.466Z,62.9
2017-03-16T08:54:38.311Z,62.9
2017-03-16T08:55:40.483Z,62.9
2017-03-16T08:56:42.320Z,63
2017-03-16T08:57:44.152Z,63
2017-03-16T08:58:45.998Z,63.1
2017-03-16T08:59:47.834Z,63.1
2017-03-16T09:00:49.675Z,63.2
2017-03-16T09:01:51.865Z,63.2
2017-03-16T09:02:53.717Z,63.2
2017-03-16T09:03:55.561Z,62.9
2017-03-16T09:04:57.403Z,62.8
2017-03-16T09:05:59.235Z,62.9
2017-03-16T09:07:01.087Z,62.9
2017-03-16T09:08:03.273Z,63
2017-03-16T09:09:05.115Z,63
2017-03-16T09:10:06.952Z,63
2017-03-16T09:11:08.785Z,62.8
2017-03-16T09:12:10.625Z,62.8
2017-03-16T09:13:12.468Z,62.7
2017-03-16T09:14:14.304Z,62.6
2017-03-16T09:15:16.151Z,62.6
2017-03-16T09:16:17.988Z,62.6
2017-03-16T09:17:19.837Z,62.5
2017-03-16T09:18:21.679Z,62.6
2017-03-16T09:19:23.527Z,62.5
2017-03-16T09:20:25.363Z,62.5
2017-03-16T09:21:27.209Z,62.4
2017-03-16T09:22:29.049Z,62.4
2017-03-16T09:23:30.905Z,62.3
2017-03-16T09:24:32.766Z,62.3
2017-03-16T09:25:34.950Z,62.3
2017-03-16T09:26:36.790Z,62.3
2017-03-16T09:27:38.630Z,62.2
2017-03-16T09:28:40.465Z,62.2
2017-03-16T09:29:42.643Z,62.2
2017-03-16T09:30:44.487Z,62
2017-03-16T09:31:46.334Z,61.9
2017-03-16T09:32:48.169Z,62
2017-03-16T09:33:50.009Z,62
2017-03-16T09:34:51.851Z,62
2017-03-16T09:35:53.700Z,62.1
2017-03-16T09:36:55.536Z,62.2
2017-03-16T09:37:57.712Z,62.4
2017-03-16T09:38:59.552Z,62.3
2017-03-16T09:40:01.392Z,62.3
2017-03-16T09:41:03.235Z,62.1
2017-03-16T09:42:05.411Z,62.1
2017-03-16T09:43:07.244Z,62.1
2017-03-16T09:44:09.093Z,62
2017-03-16T09:45:10.955Z,61.9
2017-03-16T09:46:12.802Z,61.9
2017-03-16T09:47:14.632Z,61.9
2017-03-16T09:48:16.477Z,61.8
2017-03-16T09:49:18.321Z,61.8
2017-03-16T09:50:20.158Z,61.9
2017-03-16T09:51:21.995Z,62
2017-03-16T09:52:23.840Z,62.2
2017-03-16T09:53:25.677Z,62.1
2017-03-16T09:54:27.523Z,62.1
2017-03-16T09:55:29.366Z,62.1
2017-03-16T09:56:31.216Z,62.3
2017-03-16T09:57:33.048Z,62.3
2017-03-16T09:58:34.899Z,62.1
2017-03-16T09:59:36.737Z,62.1
2017-03-16T10:00:38.931Z,62
2017-03-16T10:01:40.777Z,62
2017-03-16T10:02:42.613Z,62
2017-03-16T10:03:44.451Z,62
2017-03-16T10:04:46.301Z,61.9
2017-03-16T10:05:48.135Z,61.8
2017-03-16T10:06:49.987Z,61.8
2017-03-16T10:07:51.831Z,61.7
2017-03-16T10:08:53.673Z,61.6
2017-03-16T10:09:55.507Z,61.6
2017-03-16T10:10:57.352Z,61.6
2017-03-16T10:11:59.209Z,61.5
2017-03-16T10:13:01.390Z,61.5
2017-03-16T10:14:03.240Z,61.5
2017-03-16T10:15:05.084Z,61.5
2017-03-16T10:16:06.922Z,61.4
2017-03-16T10:17:08.772Z,61.4
2017-03-16T10:18:10.606Z,61.4
2017-03-16T10:19:12.444Z,61.2
2017-03-16T10:20:14.280Z,61.2
2017-03-16T10:21:16.463Z,61.2
2017-03-16T10:22:18.305Z,61.4
2017-03-16T10:23:20.143Z,61.4
2017-03-16T10:24:21.987Z,61.4
2017-03-16T10:25:24.158Z,61.2
2017-03-16T10:26:26.000Z,61.2
2017-03-16T10:27:27.845Z,61.2
2017-03-16T10:28:30.031Z,61.3
2017-03-16T10:29:31.903Z,61.4
2017-03-16T10:30:33.752Z,61.5
2017-03-16T10:31:35.932Z,61.6
2017-03-16T10:32:37.776Z,61.5
2017-03-16T10:33:39.620Z,61.3
2017-03-16T10:34:41.469Z,61.2
2017-03-16T10:35:43.346Z,61.4
2017-03-16T10:36:45.198Z,61.4
2017-03-16T10:37:47.040Z,61.3
2017-03-16T10:38:48.888Z,61.1
2017-03-16T10:39:50.726Z,60.9
2017-03-16T10:40:52.917Z,60.8
2017-03-16T10:41:54.750Z,60.6
2017-03-16T10:42:56.598Z,60.5
2017-03-16T10:43:58.446Z,60.5
2017-03-16T10:45:00.285Z,60.5
2017-03-16T10:46:02.126Z,60.5
2017-03-16T10:47:03.971Z,60.7
2017-03-16T10:48:05.818Z,60.8
2017-03-16T10:49:07.672Z,61.1
2017-03-16T10:50:09.507Z,61.1
2017-03-16T10:51:11.357Z,61
2017-03-16T10:52:13.193Z,60.9
2017-03-16T10:53:15.044Z,60.8
2017-03-16T10:54:16.887Z,60.7
2017-03-16T10:55:18.728Z,60.4
2017-03-16T10:56:20.572Z,60
2017-03-16T10:57:22.416Z,59.9
2017-03-16T10:58:24.290Z,60.1
2017-03-16T10:59:26.131Z,60
2017-03-16T11:00:27.983Z,60
2017-03-16T11:01:30.267Z,60
2017-03-16T11:02:32.114Z,60
2017-03-16T11:03:33.949Z,59.9
2017-03-16T11:04:36.138Z,59.8
2017-03-16T11:05:37.982Z,59.8
2017-03-16T11:06:39.829Z,60
2017-03-16T11:07:41.666Z,59.9
2017-03-16T11:08:43.515Z,59.9
2017-03-16T11:09:45.359Z,59.7
2017-03-16T11:10:47.223Z,59.5
2017-03-16T11:11:49.060Z,59.4
2017-03-16T11:12:50.910Z,59.4
2017-03-16T11:13:52.757Z,59.4
2017-03-16T11:14:54.609Z,59.5
2017-03-16T11:15:56.467Z,59.7
2017-03-16T11:16:58.310Z,59.7
2017-03-16T11:18:00.158Z,59.6
2017-03-16T11:19:01.999Z,59.7
2017-03-16T11:20:03.843Z,59.7
2017-03-16T11:21:05.688Z,59.6
2017-03-16T11:22:07.541Z,59
2017-03-16T11:23:09.376Z,58.8
2017-03-16T11:24:11.223Z,58.9
2017-03-16T11:25:13.069Z,58.8
2017-03-16T11:26:14.921Z,58.6
2017-03-16T11:27:16.762Z,58.5
2017-03-16T11:28:18.607Z,58.5
2017-03-16T11:29:20.457Z,58.5
2017-03-16T11:30:22.301Z,58.5
2017-03-16T11:31:24.155Z,58.3
2017-03-16T11:32:26.660Z,58.1
2017-03-16T11:33:28.501Z,58
2017-03-16T11:34:30.350Z,57.8
2017-03-16T11:35:32.195Z,57.9
2017-03-16T11:36:34.039Z,58
2017-03-16T11:37:35.884Z,58
2017-03-16T11:38:37.732Z,58.3
2017-03-16T11:39:39.583Z,58.1
2017-03-16T11:40:41.431Z,58
2017-03-16T11:41:43.640Z,58
2017-03-16T11:42:45.483Z,58
2017-03-16T11:43:47.339Z,58
2017-03-16T11:44:49.180Z,58.3
2017-03-16T11:45:51.053Z,58.2
2017-03-16T11:46:53.236Z,58.1
2017-03-16T11:47:55.088Z,57.9
2017-03-16T11:48:57.266Z,57.6
2017-03-16T11:49:59.116Z,57.4
2017-03-16T11:51:00.966Z,57.5
2017-03-16T11:52:02.813Z,57.4
2017-03-16T11:53:04.673Z,57.3
2017-03-16T11:54:06.525Z,57.1
2017-03-16T11:55:08.385Z,56.9
2017-03-16T11:56:10.251Z,56.8
2017-03-16T11:57:12.457Z,56.6
2017-03-16T11:58:14.313Z,56.4
2017-03-16T11:59:16.161Z,56.2
2017-03-16T12:00:18.013Z,56.2
2017-03-16T12:01:19.868Z,56.4
2017-03-16T12:02:21.723Z,56.3
2017-03-16T12:03:23.872Z,56.2
2017-03-16T12:04:25.714Z,56.1
2017-03-16T12:05:27.564Z,56.1
2017-03-16T12:06:29.411Z,56
2017-03-16T12:07:31.618Z,56
2017-03-16T12:08:33.465Z,55.8
2017-03-16T12:09:35.317Z,55.8
2017-03-16T12:10:37.165Z,55.7
2017-03-16T12:11:39.015Z,55.6
2017-03-16T12:12:40.885Z,55.5
2017-03-16T12:13:42.735Z,55.6
2017-03-16T12:14:44.923Z,55.6
2017-03-16T12:15:46.766Z,55.7
2017-03-16T12:16:48.625Z,55.7
2017-03-16T12:17:50.470Z,55.7
2017-03-16T12:18:52.667Z,55.7
2017-03-16T12:19:54.515Z,55.8
2017-03-16T12:20:56.364Z,56
2017-03-16T12:21:58.209Z,56.1
2017-03-16T12:23:00.067Z,56.1
2017-03-16T12:24:01.908Z,56
2017-03-16T12:25:03.758Z,56.1
2017-03-16T12:26:05.613Z,56
2017-03-16T12:27:07.463Z,56.1
2017-03-16T12:28:09.334Z,56
2017-03-16T12:29:11.192Z,55.9
2017-03-16T12:30:13.034Z,55.8
2017-03-16T12:31:14.887Z,55.9
2017-03-16T12:32:16.739Z,56.1
2017-03-16T12:33:18.582Z,56.2
2017-03-16T12:34:20.438Z,56.2
2017-03-16T12:35:22.279Z,56.1
2017-03-16T12:36:24.130Z,55.9
2017-03-16T12:37:25.976Z,55.6
2017-03-16T12:38:28.173Z,55.5
2017-03-16T12:39:30.027Z,55.5
2017-03-16T12:40:31.878Z,55.5
2017-03-16T12:41:33.730Z,55.6
2017-03-16T12:42:35.928Z,55.7
2017-03-16T12:43:37.772Z,55.8
2017-03-16T12:44:39.623Z,55.7
2017-03-16T12:45:41.471Z,55.6
2017-03-16T12:46:43.317Z,55.3
2017-03-16T12:47:45.509Z,55.3
2017-03-16T12:48:47.357Z,55.5
2017-03-16T12:49:49.563Z,55.6
2017-03-16T12:50:51.426Z,55.6
2017-03-16T12:51:53.277Z,55.4
2017-03-16T12:52:55.157Z,55.3
2017-03-16T12:53:57.020Z,55.3
2017-03-16T12:54:58.865Z,55.2
2017-03-16T12:56:00.716Z,55
2017-03-16T12:57:02.563Z,55
2017-03-16T12:58:04.411Z,54.7
2017-03-16T12:59:06.264Z,54.4
2017-03-16T13:00:08.120Z,54.4
2017-03-16T13:01:09.986Z,54.6
2017-03-16T13:02:11.838Z,54.7
2017-03-16T13:03:13.687Z,54.7
2017-03-16T13:04:15.535Z,54.2
2017-03-16T13:05:17.382Z,54.1
2017-03-16T13:06:19.235Z,53.9
2017-03-16T13:07:21.093Z,53.7
2017-03-16T13:08:23.290Z,53.6
2017-03-16T13:09:25.150Z,53.6
2017-03-16T13:10:26.992Z,53.6
2017-03-16T13:11:28.850Z,53.5
2017-03-16T13:12:30.700Z,53.6
2017-03-16T13:13:32.552Z,53.8
2017-03-16T13:14:34.402Z,53.7
2017-03-16T13:15:36.601Z,53.6
2017-03-16T13:16:38.453Z,53.6
2017-03-16T13:17:40.313Z,53.7
2017-03-16T13:18:42.157Z,53.6
2017-03-16T13:19:44.013Z,53.6
2017-03-16T13:20:45.876Z,53.4
2017-03-16T13:21:47.732Z,53.2
2017-03-16T13:22:49.588Z,53.1
2017-03-16T13:23:51.782Z,52.9
2017-03-16T13:24:53.633Z,53
2017-03-16T13:25:55.477Z,53
2017-03-16T13:26:57.327Z,53.2
2017-03-16T13:27:59.178Z,53
2017-03-16T13:29:01.033Z,52.9
2017-03-16T13:30:02.889Z,53.1
2017-03-16T13:31:04.750Z,53
2017-03-16T13:32:06.939Z,53.1
2017-03-16T13:33:08.799Z,53.1
2017-03-16T13:34:10.658Z,53.2
2017-03-16T13:35:12.549Z,53.1
2017-03-16T13:36:14.401Z,53.1
2017-03-16T13:37:16.257Z,53.1
2017-03-16T13:38:18.116Z,53.1
2017-03-16T13:39:19.961Z,53
2017-03-16T13:40:21.822Z,53
2017-03-16T13:41:23.670Z,53.2
2017-03-16T13:42:25.521Z,53.1
2017-03-16T13:43:27.362Z,53
2017-03-16T13:44:29.260Z,52.9
2017-03-16T13:45:31.133Z,52.8
2017-03-16T13:46:32.989Z,52.5
2017-03-16T13:47:34.845Z,52.5
2017-03-16T13:48:36.702Z,52.4
2017-03-16T13:49:38.645Z,52.4
2017-03-16T13:50:40.894Z,52.4
2017-03-16T13:51:42.757Z,52.5
2017-03-16T13:52:44.647Z,52.4
2017-03-16T13:53:46.510Z,52.5
2017-03-16T13:54:48.382Z,52.4
2017-03-16T13:55:50.246Z,52.1
2017-03-16T13:56:52.175Z,52.1